Time;durP1;ratioP1;P1;durP2;ratioP2;P2;SDS_P1;SDS_P2;PMS_P1;PMS_P2;Temp;Humidity;BMP_temperature;BMP_pressure;BME280_temperature;BME280_humidity;BME280_pressure;Samples;Min_cycle;Max_cycle;Signal;HPM_P1;HPM_P2
2023/06/28 00:01:37;;;;;;;6.40;4.90;;;;;;;;;;5046258;28;20835;-58
2023/06/28 00:04:02;;;;;;;7.40;4.80;;;;;;;;;;5046389;28;20326;-58
2023/06/28 00:06:27;;;;;;;7.78;4.57;;;;;;;;;;5062198;28;20169;-58
2023/06/28 00:08:53;;;;;;;6.47;4.40;;;;;;;;;;5033524;28;20116;-58
2023/06/28 00:11:18;;;;;;;7.63;4.55;;;;;;;;;;5040858;28;20279;-59
2023/06/28 00:13:43;;;;;;;8.67;4.43;;;;;;;;;;5051992;28;20025;-58
2023/06/28 00:16:08;;;;;;;6.57;4.43;;;;;;;;;;5052704;28;20356;-59
2023/06/28 00:18:35;;;;;;;5.60;4.13;;;;;;;;;;5035063;28;20121;-58
2023/06/28 00:21:02;;;;;;;7.88;4.68;;;;;;;;;;5027618;28;20287;-59
2023/06/28 00:23:27;;;;;;;6.68;4.68;;;;;;;;;;5033565;28;20048;-58
2023/06/28 00:25:53;;;;;;;7.38;4.70;;;;;;;;;;5031266;28;20433;-58
2023/06/28 00:28:18;;;;;;;6.80;4.60;;;;;;;;;;5058034;28;20044;-58
2023/06/28 00:30:43;;;;;;;6.70;4.60;;;;;;;;;;5057844;28;20286;-58
2023/06/28 00:33:08;;;;;;;10.13;4.75;;;;;;;;;;5044088;28;20732;-57
2023/06/28 00:35:34;;;;;;;5.87;4.23;;;;;;;;;;5045771;28;20528;-58
2023/06/28 00:37:59;;;;;;;6.73;4.63;;;;;;;;;;5029468;28;20294;-58
2023/06/28 00:40:24;;;;;;;7.07;4.87;;;;;;;;;;5035120;28;20285;-59
2023/06/28 00:42:49;;;;;;;6.90;4.43;;;;;;;;;;5046046;28;20685;-57
2023/06/28 00:45:15;;;;;;;8.00;4.80;;;;;;;;;;5035689;28;20479;-58
2023/06/28 00:47:40;;;;;;;6.23;4.67;;;;;;;;;;5048284;28;20479;-58
2023/06/28 00:50:06;;;;;;;5.25;4.20;;;;;;;;;;5044126;28;20340;-58
2023/06/28 00:52:31;;;;;;;6.68;4.97;;;;;;;;;;5046435;28;20517;-57
2023/06/28 00:54:56;;;;;;;7.68;4.80;;;;;;;;;;5052880;28;20139;-57
2023/06/28 00:57:22;;;;;;;5.53;3.97;;;;;;;;;;5048936;28;20041;-58
2023/06/28 00:59:47;;;;;;;7.75;4.32;;;;;;;;;;5035330;28;20283;-58
2023/06/28 01:02:12;;;;;;;7.83;5.10;;;;;;;;;;5039273;28;20051;-58
2023/06/28 01:04:37;;;;;;;6.47;5.10;;;;;;;;;;5017283;28;20323;-58
2023/06/28 01:07:03;;;;;;;6.28;4.43;;;;;;;;;;5050114;28;20461;-58
2023/06/28 01:09:28;;;;;;;6.80;4.47;;;;;;;;;;5037747;28;20147;-59
2023/06/28 01:11:54;;;;;;;5.75;4.60;;;;;;;;;;5050722;28;20112;-59
2023/06/28 01:14:19;;;;;;;6.78;4.30;;;;;;;;;;5029436;28;20447;-59
2023/06/28 01:16:45;;;;;;;9.00;5.10;;;;;;;;;;5027503;28;20041;-58
2023/06/28 01:19:13;;;;;;;6.60;4.57;;;;;;;;;;5039782;28;20610;-58
2023/06/28 01:21:38;;;;;;;7.00;4.68;;;;;;;;;;5024897;28;20510;-59
2023/06/28 01:24:03;;;;;;;6.57;4.32;;;;;;;;;;5039721;28;20103;-58
2023/06/28 01:26:29;;;;;;;7.75;5.20;;;;;;;;;;5017763;28;20072;-58
2023/06/28 01:28:54;;;;;;;7.23;5.00;;;;;;;;;;5035606;28;20041;-58
2023/06/28 01:31:19;;;;;;;7.03;4.75;;;;;;;;;;5021162;28;20278;-58
2023/06/28 01:33:46;;;;;;;7.50;4.50;;;;;;;;;;5036044;28;20044;-57
2023/06/28 01:36:11;;;;;;;6.00;4.75;;;;;;;;;;5053159;28;20044;-57
2023/06/28 01:38:37;;;;;;;6.07;4.57;;;;;;;;;;5016513;28;20648;-57
2023/06/28 01:41:02;;;;;;;6.13;4.57;;;;;;;;;;5052675;28;20511;-57
2023/06/28 01:43:27;;;;;;;7.30;4.95;;;;;;;;;;5019445;28;20083;-57
2023/06/28 01:45:53;;;;;;;6.28;5.03;;;;;;;;;;5051741;28;20032;-57
2023/06/28 01:48:18;;;;;;;11.17;4.90;;;;;;;;;;5033695;28;20098;-57
2023/06/28 01:50:43;;;;;;;5.73;5.10;;;;;;;;;;5039518;28;20287;-58
2023/06/28 01:53:08;;;;;;;7.33;5.40;;;;;;;;;;5016234;28;20796;-57
2023/06/28 01:55:34;;;;;;;7.73;5.50;;;;;;;;;;5052450;28;20274;-57
2023/06/28 01:57:59;;;;;;;8.57;5.30;;;;;;;;;;5045213;28;20307;-57
2023/06/28 02:00:24;;;;;;;6.97;5.10;;;;;;;;;;5052912;28;20286;-57
2023/06/28 02:02:53;;;;;;;8.05;5.05;;;;;;;;;;5057441;28;20053;-56
2023/06/28 02:05:19;;;;;;;7.45;5.18;;;;;;;;;;5026175;28;20526;-57
2023/06/28 02:07:44;;;;;;;8.25;5.75;;;;;;;;;;5041614;28;20045;-58
2023/06/28 02:10:10;;;;;;;6.87;5.23;;;;;;;;;;5037770;28;20458;-58
2023/06/28 02:12:35;;;;;;;8.45;6.35;;;;;;;;;;5028460;28;20279;-57
2023/06/28 02:15:03;;;;;;;7.10;6.03;;;;;;;;;;5063886;28;20085;-57
2023/06/28 02:17:31;;;;;;;9.48;7.13;;;;;;;;;;5019559;28;20047;-57
2023/06/28 02:19:56;;;;;;;10.98;6.95;;;;;;;;;;5051378;28;20487;-57
2023/06/28 02:22:22;;;;;;;9.00;7.43;;;;;;;;;;5054023;28;20064;-57
2023/06/28 02:24:47;;;;;;;9.73;7.40;;;;;;;;;;5045591;28;20570;-57
2023/06/28 02:27:12;;;;;;;8.30;7.13;;;;;;;;;;5025586;28;20287;-57
2023/06/28 02:29:37;;;;;;;9.63;7.30;;;;;;;;;;5060947;28;20290;-57
2023/06/28 02:32:03;;;;;;;8.13;7.27;;;;;;;;;;5025932;28;20844;-57
2023/06/28 02:34:28;;;;;;;9.52;7.93;;;;;;;;;;5031714;28;20290;-57
2023/06/28 02:36:53;;;;;;;10.43;7.97;;;;;;;;;;5013634;28;20033;-57
2023/06/28 02:39:19;;;;;;;8.13;7.32;;;;;;;;;;5057630;28;20486;-57
2023/06/28 02:41:44;;;;;;;9.43;7.93;;;;;;;;;;5030112;28;20119;-56
2023/06/28 02:44:09;;;;;;;8.65;7.78;;;;;;;;;;5054029;28;20044;-57
2023/06/28 02:46:34;;;;;;;9.53;8.40;;;;;;;;;;5030587;28;20035;-58
2023/06/28 02:49:00;;;;;;;10.27;8.40;;;;;;;;;;5029012;28;20287;-58
2023/06/28 02:51:25;;;;;;;9.10;8.10;;;;;;;;;;5049741;28;20707;-58
2023/06/28 02:53:50;;;;;;;9.20;7.90;;;;;;;;;;5045093;28;20287;-57
2023/06/28 02:56:15;;;;;;;11.75;8.43;;;;;;;;;;5042780;28;20279;-57
2023/06/28 02:58:41;;;;;;;9.43;7.38;;;;;;;;;;5059696;28;20036;-57
2023/06/28 03:01:07;;;;;;;9.35;7.97;;;;;;;;;;5040600;28;20091;-59
2023/06/28 03:03:34;;;;;;;10.95;7.82;;;;;;;;;;5050623;28;20135;-58
2023/06/28 03:05:59;;;;;;;9.60;7.88;;;;;;;;;;5043707;28;20040;-59
2023/06/28 03:08:24;;;;;;;10.52;8.00;;;;;;;;;;5050586;28;20090;-57
2023/06/28 03:10:50;;;;;;;9.03;7.63;;;;;;;;;;5027029;28;20062;-60
2023/06/28 03:13:15;;;;;;;10.82;8.02;;;;;;;;;;5055151;28;20485;-60
2023/06/28 03:15:40;;;;;;;8.80;7.80;;;;;;;;;;5027702;28;20032;-59
2023/06/28 03:18:06;;;;;;;9.68;8.20;;;;;;;;;;5057812;28;20043;-58
2023/06/28 03:20:31;;;;;;;9.87;7.77;;;;;;;;;;5043701;28;21223;-58
2023/06/28 03:22:56;;;;;;;10.73;8.73;;;;;;;;;;5061683;28;20309;-57
2023/06/28 03:25:21;;;;;;;9.27;8.20;;;;;;;;;;5046047;28;20498;-57
2023/06/28 03:27:47;;;;;;;9.53;7.90;;;;;;;;;;5069196;28;20331;-57
2023/06/28 03:30:12;;;;;;;11.27;8.00;;;;;;;;;;5028331;28;20067;-58
2023/06/28 03:32:37;;;;;;;12.15;8.07;;;;;;;;;;5038185;28;20081;-60
2023/06/28 03:35:02;;;;;;;9.83;8.03;;;;;;;;;;5030162;28;20301;-59
2023/06/28 03:37:28;;;;;;;9.45;8.10;;;;;;;;;;5064199;28;20289;-58
2023/06/28 03:39:53;;;;;;;10.10;8.40;;;;;;;;;;5059232;28;20032;-57
2023/06/28 03:42:18;;;;;;;9.80;7.90;;;;;;;;;;5055841;28;20163;-57
2023/06/28 03:44:43;;;;;;;10.13;8.10;;;;;;;;;;5043570;28;20280;-57
2023/06/28 03:47:09;;;;;;;9.63;8.67;;;;;;;;;;5060124;28;20279;-58
2023/06/28 03:49:34;;;;;;;10.18;9.05;;;;;;;;;;5027280;28;20307;-57
2023/06/28 03:51:59;;;;;;;10.77;8.65;;;;;;;;;;5048513;28;20119;-58
2023/06/28 03:54:24;;;;;;;10.23;8.95;;;;;;;;;;5041188;28;20037;-58
2023/06/28 03:56:51;;;;;;;10.60;9.50;;;;;;;;;;5055641;28;20040;-59
2023/06/28 03:59:16;;;;;;;10.52;9.43;;;;;;;;;;5038815;28;20771;-58
2023/06/28 04:01:41;;;;;;;11.37;10.03;;;;;;;;;;5021272;28;20096;-58
2023/06/28 04:04:06;;;;;;;11.90;9.93;;;;;;;;;;5038588;28;20136;-58
2023/06/28 04:06:32;;;;;;;12.88;10.18;;;;;;;;;;5052082;28;20291;-57
2023/06/28 04:08:57;;;;;;;11.07;9.80;;;;;;;;;;5040864;28;20533;-57
2023/06/28 04:11:22;;;;;;;12.68;10.55;;;;;;;;;;5055451;28;20294;-58
2023/06/28 04:13:47;;;;;;;12.80;10.60;;;;;;;;;;5058337;28;20120;-58
2023/06/28 04:16:13;;;;;;;13.83;10.70;;;;;;;;;;5032656;28;20317;-59
2023/06/28 04:18:38;;;;;;;11.90;10.53;;;;;;;;;;5052114;28;20319;-57
2023/06/28 04:21:03;;;;;;;12.30;10.25;;;;;;;;;;5032531;28;20372;-58
2023/06/28 04:23:28;;;;;;;15.02;11.20;;;;;;;;;;5043484;28;20041;-58
2023/06/28 04:25:54;;;;;;;11.73;10.53;;;;;;;;;;5053902;28;20566;-57
2023/06/28 04:28:19;;;;;;;14.43;11.07;;;;;;;;;;5032707;28;20325;-57
2023/06/28 04:30:44;;;;;;;11.50;9.40;;;;;;;;;;5024986;28;20832;-60
2023/06/28 04:33:18;;;;;;;11.70;10.50;;;;;;;;;;5016817;28;20302;-57
2023/06/28 04:35:46;;;;;;;13.15;11.00;;;;;;;;;;5039757;28;20215;-58
2023/06/28 04:38:13;;;;;;;12.73;10.75;;;;;;;;;;5040940;28;20141;-58
2023/06/28 04:40:39;;;;;;;15.55;10.10;;;;;;;;;;5040461;28;20044;-58
2023/06/28 04:43:09;;;;;;;14.85;10.75;;;;;;;;;;5032681;28;20556;-57
2023/06/28 04:45:36;;;;;;;13.38;11.25;;;;;;;;;;5051286;28;20040;-56
2023/06/28 04:48:05;;;;;;;11.68;10.48;;;;;;;;;;5015388;28;20036;-62
2023/06/28 04:50:31;;;;;;;13.30;10.73;;;;;;;;;;5033504;28;20052;-58
2023/06/28 04:52:56;;;;;;;14.77;10.68;;;;;;;;;;5036574;28;22197;-57
2023/06/28 04:55:21;;;;;;;12.60;11.03;;;;;;;;;;5037460;28;20025;-59
2023/06/28 04:57:47;;;;;;;13.80;10.53;;;;;;;;;;5032755;28;20306;-58
2023/06/28 05:00:12;;;;;;;13.00;10.70;;;;;;;;;;5021116;28;20739;-58
2023/06/28 05:02:38;;;;;;;12.70;9.75;;;;;;;;;;5032750;28;20048;-58
2023/06/28 05:05:03;;;;;;;10.88;9.52;;;;;;;;;;5051330;28;20044;-58
2023/06/28 05:07:28;;;;;;;11.32;10.10;;;;;;;;;;5034294;28;20028;-58
2023/06/28 05:09:54;;;;;;;11.45;10.18;;;;;;;;;;5050017;28;20032;-58
2023/06/28 05:12:19;;;;;;;11.00;9.90;;;;;;;;;;5040576;28;20028;-58
2023/06/28 05:14:45;;;;;;;13.27;10.10;;;;;;;;;;5048235;28;20063;-58
2023/06/28 05:17:10;;;;;;;12.27;9.55;;;;;;;;;;5032353;28;20279;-59
2023/06/28 05:19:35;;;;;;;11.10;9.27;;;;;;;;;;5031696;28;20489;-58
2023/06/28 05:22:01;;;;;;;12.77;9.48;;;;;;;;;;5032664;28;20271;-58
2023/06/28 05:24:26;;;;;;;11.15;9.95;;;;;;;;;;5015612;28;20568;-58
2023/06/28 05:26:51;;;;;;;11.50;10.07;;;;;;;;;;5020650;28;20149;-59
2023/06/28 05:29:19;;;;;;;13.52;10.63;;;;;;;;;;5020881;28;20278;-59
2023/06/28 05:31:44;;;;;;;13.52;10.18;;;;;;;;;;5050011;28;20143;-59
2023/06/28 05:34:11;;;;;;;12.87;10.40;;;;;;;;;;5044873;28;20187;-61
2023/06/28 05:36:36;;;;;;;12.15;9.98;;;;;;;;;;5031964;28;20286;-59
2023/06/28 05:39:02;;;;;;;12.13;10.23;;;;;;;;;;5028058;28;20017;-65
2023/06/28 05:41:27;;;;;;;12.73;10.13;;;;;;;;;;5045493;28;20300;-63
2023/06/28 05:43:52;;;;;;;10.97;9.77;;;;;;;;;;5028733;28;20982;-59
2023/06/28 05:46:18;;;;;;;10.53;9.37;;;;;;;;;;5018384;28;20332;-57
2023/06/28 05:48:45;;;;;;;12.68;10.00;;;;;;;;;;5029105;28;20283;-59
2023/06/28 05:51:12;;;;;;;13.18;10.65;;;;;;;;;;5049847;28;20045;-59
2023/06/28 05:53:38;;;;;;;11.63;10.07;;;;;;;;;;5019934;28;20137;-57
2023/06/28 05:56:03;;;;;;;13.80;10.77;;;;;;;;;;5036843;28;20131;-59
2023/06/28 05:58:28;;;;;;;14.02;10.95;;;;;;;;;;5019603;28;20036;-57
2023/06/28 06:00:54;;;;;;;13.80;10.63;;;;;;;;;;5031354;28;20495;-57
2023/06/28 06:03:19;;;;;;;13.67;11.13;;;;;;;;;;5049596;28;20048;-57
2023/06/28 06:05:46;;;;;;;13.32;11.15;;;;;;;;;;5031267;28;20324;-58
2023/06/28 06:08:11;;;;;;;13.07;11.23;;;;;;;;;;5030127;28;20043;-58
2023/06/28 06:10:37;;;;;;;14.63;11.38;;;;;;;;;;5030563;28;20040;-60
2023/06/28 06:13:02;;;;;;;14.07;11.32;;;;;;;;;;5030693;28;20041;-58
2023/06/28 06:15:27;;;;;;;13.68;11.90;;;;;;;;;;5030787;28;20043;-57
2023/06/28 06:17:53;;;;;;;15.97;11.97;;;;;;;;;;5037136;28;20039;-57
2023/06/28 06:20:18;;;;;;;16.40;13.20;;;;;;;;;;5049123;28;20287;-57
2023/06/28 06:22:43;;;;;;;17.33;13.95;;;;;;;;;;5031949;28;20094;-61
2023/06/28 06:25:09;;;;;;;17.55;14.05;;;;;;;;;;5049969;28;20616;-58
2023/06/28 06:27:34;;;;;;;16.02;13.98;;;;;;;;;;5031049;28;20032;-58
2023/06/28 06:29:59;;;;;;;18.65;13.38;;;;;;;;;;5036414;28;20567;-58
2023/06/28 06:32:25;;;;;;;16.60;13.07;;;;;;;;;;5031156;28;20093;-58
2023/06/28 06:34:50;;;;;;;16.77;13.13;;;;;;;;;;5030138;28;20291;-58
2023/06/28 06:37:15;;;;;;;15.48;12.98;;;;;;;;;;5019642;28;20705;-58
2023/06/28 06:39:41;;;;;;;14.82;11.93;;;;;;;;;;5035464;28;20040;-57
2023/06/28 06:42:07;;;;;;;14.82;11.68;;;;;;;;;;5047753;28;20033;-59
2023/06/28 06:44:32;;;;;;;13.35;11.77;;;;;;;;;;5014067;28;20051;-57
2023/06/28 06:46:58;;;;;;;15.50;12.40;;;;;;;;;;5019499;28;20040;-57
2023/06/28 06:49:23;;;;;;;14.65;12.27;;;;;;;;;;5030068;28;20070;-57
2023/06/28 06:51:48;;;;;;;15.23;12.17;;;;;;;;;;5019970;28;20039;-57
2023/06/28 06:54:13;;;;;;;17.08;11.88;;;;;;;;;;5018457;28;20317;-58
2023/06/28 06:56:39;;;;;;;13.68;11.10;;;;;;;;;;5035508;28;20052;-58
2023/06/28 06:59:04;;;;;;;12.95;10.95;;;;;;;;;;5017800;28;20510;-56
2023/06/28 07:01:32;;;;;;;13.70;12.07;;;;;;;;;;5028669;28;20029;-57
2023/06/28 07:03:57;;;;;;;13.10;11.30;;;;;;;;;;5047752;28;20048;-58
2023/06/28 07:06:22;;;;;;;13.20;11.75;;;;;;;;;;5029992;28;20048;-57
2023/06/28 07:08:47;;;;;;;12.35;10.80;;;;;;;;;;5044407;28;20032;-57
2023/06/28 07:11:13;;;;;;;12.43;10.60;;;;;;;;;;5029168;28;20154;-57
2023/06/28 07:13:38;;;;;;;11.23;9.83;;;;;;;;;;5046957;28;20045;-57
2023/06/28 07:16:03;;;;;;;11.52;10.02;;;;;;;;;;5018772;28;20976;-57
2023/06/28 07:18:29;;;;;;;14.27;10.80;;;;;;;;;;5028263;28;20418;-58
2023/06/28 07:20:54;;;;;;;13.40;9.90;;;;;;;;;;5047945;28;20449;-58
2023/06/28 07:23:19;;;;;;;12.57;10.20;;;;;;;;;;5034847;28;20299;-57
2023/06/28 07:25:44;;;;;;;12.43;10.50;;;;;;;;;;5034987;28;20052;-58
2023/06/28 07:28:10;;;;;;;11.40;10.20;;;;;;;;;;5029163;28;20995;-58
2023/06/28 07:31:10;;;;;;;13.50;9.93;;;;;;;;;;5047577;28;20158;-58
2023/06/28 07:33:36;;;;;;;14.57;9.55;;;;;;;;;;4968479;28;20121;-58
2023/06/28 07:36:01;;;;;;;14.45;10.02;;;;;;;;;;5000922;28;20551;-58
2023/06/28 07:38:26;;;;;;;11.50;9.27;;;;;;;;;;5047531;28;20033;-58
2023/06/28 07:40:53;;;;;;;12.50;9.30;;;;;;;;;;5029673;28;20033;-58
2023/06/28 07:43:19;;;;;;;10.70;9.07;;;;;;;;;;5029155;28;20318;-58
2023/06/28 07:45:44;;;;;;;11.98;9.40;;;;;;;;;;5029659;28;20552;-58
2023/06/28 07:48:09;;;;;;;11.18;9.07;;;;;;;;;;5029533;28;20048;-58
2023/06/28 07:50:34;;;;;;;11.68;8.90;;;;;;;;;;5047684;28;20428;-59
2023/06/28 07:53:00;;;;;;;10.13;9.02;;;;;;;;;;5048316;28;20041;-58
2023/06/28 07:55:27;;;;;;;12.75;9.20;;;;;;;;;;5029780;28;20039;-59
2023/06/28 07:57:53;;;;;;;12.07;8.95;;;;;;;;;;5048511;28;20041;-59
2023/06/28 08:00:18;;;;;;;10.73;8.40;;;;;;;;;;5017647;28;20773;-60
2023/06/28 08:02:43;;;;;;;9.48;8.43;;;;;;;;;;5045276;28;20417;-58
2023/06/28 08:05:09;;;;;;;9.75;8.10;;;;;;;;;;5047019;28;20036;-59
2023/06/28 08:07:34;;;;;;;9.25;7.45;;;;;;;;;;5018385;28;20529;-60
2023/06/28 08:09:59;;;;;;;11.93;7.53;;;;;;;;;;5047785;28;20037;-59
2023/06/28 08:12:25;;;;;;;10.63;7.30;;;;;;;;;;5018892;28;20554;-57
2023/06/28 08:14:50;;;;;;;10.80;7.23;;;;;;;;;;5030338;28;20434;-58
2023/06/28 08:17:15;;;;;;;9.10;7.17;;;;;;;;;;5054663;28;20037;-58
2023/06/28 08:19:40;;;;;;;9.40;7.18;;;;;;;;;;5063569;28;20308;-59
2023/06/28 08:22:06;;;;;;;9.63;7.67;;;;;;;;;;5019545;28;20044;-59
2023/06/28 08:24:31;;;;;;;9.27;7.63;;;;;;;;;;5033338;28;20043;-58
2023/06/28 08:26:56;;;;;;;10.15;6.90;;;;;;;;;;5030544;28;20428;-59
2023/06/28 08:29:22;;;;;;;10.17;7.87;;;;;;;;;;5064523;28;20176;-58
2023/06/28 08:31:47;;;;;;;10.32;6.78;;;;;;;;;;5044305;28;20677;-58
2023/06/28 08:34:12;;;;;;;8.23;6.80;;;;;;;;;;5034234;28;20403;-59
2023/06/28 08:36:37;;;;;;;8.80;7.18;;;;;;;;;;5046900;28;20370;-59
2023/06/28 08:39:03;;;;;;;10.10;7.53;;;;;;;;;;5028201;28;20738;-58
2023/06/28 08:41:28;;;;;;;9.10;7.13;;;;;;;;;;5027977;28;20033;-58
2023/06/28 08:43:53;;;;;;;10.45;7.57;;;;;;;;;;5049868;28;20589;-58
2023/06/28 08:46:19;;;;;;;8.90;7.30;;;;;;;;;;5028817;28;20106;-59
2023/06/28 08:48:45;;;;;;;9.77;7.57;;;;;;;;;;5031068;28;20464;-58
2023/06/28 08:51:11;;;;;;;9.07;7.18;;;;;;;;;;5043342;28;20679;-58
2023/06/28 08:53:36;;;;;;;10.05;7.85;;;;;;;;;;5019024;28;20095;-59
2023/06/28 08:56:01;;;;;;;9.30;7.78;;;;;;;;;;5023533;28;20065;-58
2023/06/28 08:58:26;;;;;;;8.97;7.33;;;;;;;;;;5055375;28;20585;-58
2023/06/28 09:00:52;;;;;;;9.07;7.70;;;;;;;;;;5054878;28;20512;-59
2023/06/28 09:03:18;;;;;;;8.40;7.50;;;;;;;;;;5064902;28;20306;-57
2023/06/28 09:05:44;;;;;;;9.75;7.68;;;;;;;;;;5044846;28;20033;-58
2023/06/28 09:08:09;;;;;;;9.38;7.70;;;;;;;;;;5065065;28;20048;-57
2023/06/28 09:10:34;;;;;;;10.57;8.00;;;;;;;;;;5048088;28;20556;-58
2023/06/28 09:13:00;;;;;;;10.23;6.80;;;;;;;;;;5045166;28;20423;-58
2023/06/28 09:15:25;;;;;;;10.57;7.25;;;;;;;;;;5043229;28;20382;-58
2023/06/28 09:17:50;;;;;;;10.48;7.00;;;;;;;;;;5030564;28;20081;-57
2023/06/28 09:20:16;;;;;;;10.23;7.40;;;;;;;;;;5047405;28;20218;-57
2023/06/28 09:22:41;;;;;;;9.82;6.85;;;;;;;;;;5066213;28;20307;-57
2023/06/28 09:25:07;;;;;;;9.87;6.87;;;;;;;;;;5031709;28;20030;-57
2023/06/28 09:27:32;;;;;;;9.63;7.65;;;;;;;;;;5041943;28;20382;-58
2023/06/28 09:29:58;;;;;;;8.50;6.70;;;;;;;;;;5036249;28;20122;-58
2023/06/28 09:32:24;;;;;;;12.30;7.45;;;;;;;;;;5039126;28;20033;-58
2023/06/28 09:34:49;;;;;;;7.30;6.50;;;;;;;;;;5028355;28;20060;-58
2023/06/28 09:37:14;;;;;;;8.77;7.40;;;;;;;;;;5029950;28;20361;-57
2023/06/28 09:39:39;;;;;;;9.50;7.40;;;;;;;;;;5027586;28;20716;-58
2023/06/28 09:42:05;;;;;;;10.57;7.35;;;;;;;;;;5027183;28;20360;-60
2023/06/28 09:44:30;;;;;;;9.10;7.28;;;;;;;;;;5034110;28;20515;-59
2023/06/28 09:46:59;;;;;;;8.57;7.05;;;;;;;;;;5031842;28;20033;-58
2023/06/28 09:49:25;;;;;;;8.83;7.33;;;;;;;;;;5050562;28;20048;-59
2023/06/28 09:52:00;;;;;;;8.48;7.30;;;;;;;;;;5052284;28;20036;-59
2023/06/28 09:54:31;;;;;;;8.68;7.57;;;;;;;;;;5048417;28;20057;-59
2023/06/28 09:56:57;;;;;;;8.13;7.15;;;;;;;;;;5029440;28;20069;-58
2023/06/28 09:59:23;;;;;;;8.50;7.38;;;;;;;;;;5035482;28;20056;-59
2023/06/28 10:01:48;;;;;;;11.10;7.50;;;;;;;;;;5019534;28;20076;-60
2023/06/28 10:04:14;;;;;;;10.80;7.85;;;;;;;;;;5030697;28;20087;-60
2023/06/28 10:06:39;;;;;;;11.10;7.43;;;;;;;;;;5030592;28;20093;-58
2023/06/28 10:09:04;;;;;;;8.70;7.72;;;;;;;;;;5032096;28;20043;-58
2023/06/28 10:11:31;;;;;;;9.50;7.53;;;;;;;;;;5029453;28;20048;-58
2023/06/28 10:13:57;;;;;;;9.95;7.35;;;;;;;;;;5030195;28;20291;-59
2023/06/28 10:16:24;;;;;;;9.55;7.57;;;;;;;;;;5019747;28;20733;-59
2023/06/28 10:18:49;;;;;;;9.95;7.47;;;;;;;;;;5029839;28;20173;-58
2023/06/28 10:21:14;;;;;;;10.07;7.47;;;;;;;;;;5018819;28;20162;-60
2023/06/28 10:23:40;;;;;;;10.40;7.60;;;;;;;;;;5019958;28;20615;-59
2023/06/28 10:26:05;;;;;;;8.82;7.20;;;;;;;;;;5019573;28;20650;-58
2023/06/28 10:28:34;;;;;;;8.48;7.30;;;;;;;;;;5030599;28;20052;-59
2023/06/28 10:30:59;;;;;;;9.07;7.47;;;;;;;;;;5029670;28;20029;-60
2023/06/28 10:33:25;;;;;;;9.45;7.57;;;;;;;;;;5030753;28;20051;-60
2023/06/28 10:35:50;;;;;;;9.33;7.63;;;;;;;;;;5048362;28;20048;-59
2023/06/28 10:38:15;;;;;;;10.30;6.95;;;;;;;;;;5019594;28;20429;-61
2023/06/28 10:40:41;;;;;;;9.33;8.10;;;;;;;;;;5019281;28;20043;-61
2023/06/28 10:43:06;;;;;;;8.80;7.90;;;;;;;;;;5030199;28;20060;-61
2023/06/28 10:45:35;;;;;;;8.85;7.70;;;;;;;;;;5029899;28;20513;-59
2023/06/28 10:48:00;;;;;;;10.55;7.60;;;;;;;;;;5017665;28;20086;-60
2023/06/28 10:50:25;;;;;;;10.10;7.43;;;;;;;;;;5029009;28;20045;-61
2023/06/28 10:52:54;;;;;;;9.70;7.53;;;;;;;;;;5014242;28;20307;-61
2023/06/28 10:55:29;;;;;;;10.40;7.47;;;;;;;;;;5012788;28;20809;-58
2023/06/28 10:58:04;;;;;;;10.25;7.55;;;;;;;;;;5034821;28;20158;-58
2023/06/28 11:00:30;;;;;;;8.88;7.25;;;;;;;;;;5048071;28;20048;-59
2023/06/28 11:03:03;;;;;;;9.97;7.20;;;;;;;;;;5046506;28;20123;-59
2023/06/28 11:05:39;;;;;;;8.38;6.50;;;;;;;;;;5046664;28;20303;-58
2023/06/28 11:08:11;;;;;;;8.73;7.10;;;;;;;;;;5045654;28;20119;-58
2023/06/28 11:10:40;;;;;;;8.43;6.88;;;;;;;;;;5035351;28;20036;-58
2023/06/28 11:13:08;;;;;;;8.77;6.63;;;;;;;;;;5046297;28;20044;-57
2023/06/28 11:15:33;;;;;;;8.95;6.53;;;;;;;;;;5029418;28;20032;-58
2023/06/28 11:18:24;;;;;;;9.50;6.32;;;;;;;;;;5048035;28;20044;-59
2023/06/28 11:20:50;;;;;;;9.82;6.50;;;;;;;;;;5044312;28;20036;-59
2023/06/28 11:23:22;;;;;;;8.52;6.38;;;;;;;;;;5029733;28;20204;-59
2023/06/28 11:25:47;;;;;;;8.77;6.43;;;;;;;;;;5017483;28;20029;-59
2023/06/28 11:28:13;;;;;;;7.95;6.53;;;;;;;;;;5048285;28;20032;-59
2023/06/28 11:30:47;;;;;;;7.73;6.40;;;;;;;;;;5048308;28;20037;-58
2023/06/28 11:33:13;;;;;;;10.60;6.82;;;;;;;;;;5036009;28;20090;-59
2023/06/28 11:35:40;;;;;;;8.88;6.60;;;;;;;;;;5029795;28;20193;-59
2023/06/28 11:38:05;;;;;;;8.80;6.20;;;;;;;;;;5049455;28;20037;-59
2023/06/28 11:40:30;;;;;;;7.87;6.43;;;;;;;;;;5048643;28;20098;-59
2023/06/28 11:42:56;;;;;;;9.20;6.20;;;;;;;;;;5049834;28;20820;-59
2023/06/28 11:45:21;;;;;;;8.65;6.13;;;;;;;;;;5035077;28;20291;-58
2023/06/28 11:47:46;;;;;;;8.17;6.13;;;;;;;;;;5049798;28;20484;-60
2023/06/28 11:50:11;;;;;;;7.30;5.70;;;;;;;;;;5032902;28;20283;-59
2023/06/28 11:52:37;;;;;;;11.23;5.77;;;;;;;;;;5052462;28;20291;-58
2023/06/28 11:55:02;;;;;;;7.50;5.20;;;;;;;;;;5034243;28;20851;-58
2023/06/28 11:57:27;;;;;;;7.10;5.47;;;;;;;;;;5032437;28;20290;-58
2023/06/28 11:59:52;;;;;;;6.30;4.53;;;;;;;;;;5051749;28;20166;-58
2023/06/28 12:02:18;;;;;;;7.20;4.50;;;;;;;;;;5037306;28;20291;-57
2023/06/28 12:04:53;;;;;;;8.47;4.83;;;;;;;;;;5032065;28;20044;-58
2023/06/28 12:07:18;;;;;;;8.60;4.97;;;;;;;;;;5032794;28;20287;-58
2023/06/28 12:09:43;;;;;;;5.88;4.40;;;;;;;;;;5031310;28;20710;-58
2023/06/28 12:12:09;;;;;;;6.72;4.20;;;;;;;;;;5050510;28;20086;-58
2023/06/28 12:14:38;;;;;;;6.95;4.63;;;;;;;;;;5054853;28;20094;-58
2023/06/28 12:17:03;;;;;;;7.32;4.55;;;;;;;;;;5032663;28;20127;-59
2023/06/28 12:19:32;;;;;;;7.17;4.43;;;;;;;;;;5050185;28;20028;-60
2023/06/28 12:21:59;;;;;;;6.15;4.68;;;;;;;;;;5039752;28;20317;-60
2023/06/28 12:24:25;;;;;;;6.30;4.40;;;;;;;;;;5032610;28;20048;-59
2023/06/28 12:26:51;;;;;;;8.77;4.90;;;;;;;;;;5033827;28;20059;-59
2023/06/28 12:29:26;;;;;;;9.65;4.53;;;;;;;;;;5050061;28;20098;-60
2023/06/28 12:31:53;;;;;;;6.38;4.03;;;;;;;;;;5016007;28;20056;-60
2023/06/28 12:34:24;;;;;;;8.23;4.38;;;;;;;;;;5042370;28;20047;-59
2023/06/28 12:36:55;;;;;;;7.05;4.63;;;;;;;;;;5051221;28;20040;-59
2023/06/28 12:39:22;;;;;;;7.50;4.57;;;;;;;;;;5050827;28;20196;-60
2023/06/28 12:41:59;;;;;;;4.75;3.90;;;;;;;;;;5031888;28;20162;-58
2023/06/28 12:44:24;;;;;;;5.22;3.50;;;;;;;;;;5051203;28;20186;-58
2023/06/28 12:46:49;;;;;;;7.90;3.93;;;;;;;;;;5050746;28;20021;-59
2023/06/28 12:49:14;;;;;;;5.10;3.70;;;;;;;;;;5051178;28;20012;-58
2023/06/28 12:51:40;;;;;;;9.27;4.33;;;;;;;;;;5050734;28;20055;-59
2023/06/28 12:54:05;;;;;;;4.97;3.67;;;;;;;;;;5051633;28;20829;-61
2023/06/28 12:56:30;;;;;;;5.90;3.50;;;;;;;;;;5034203;28;20389;-59
2023/06/28 12:58:55;;;;;;;7.80;3.80;;;;;;;;;;5033377;28;20279;-58
2023/06/28 13:01:21;;;;;;;7.33;3.60;;;;;;;;;;5032349;28;20024;-59
2023/06/28 13:03:51;;;;;;;5.30;3.53;;;;;;;;;;5050595;28;24841;-58
2023/06/28 13:06:16;;;;;;;6.53;3.67;;;;;;;;;;5052161;28;20292;-58
2023/06/28 13:08:42;;;;;;;6.77;3.53;;;;;;;;;;5049183;28;20056;-59
2023/06/28 13:11:08;;;;;;;6.57;3.63;;;;;;;;;;5031917;28;20286;-59
2023/06/28 13:13:33;;;;;;;7.28;3.70;;;;;;;;;;5051691;28;20186;-60
2023/06/28 13:15:58;;;;;;;5.50;3.78;;;;;;;;;;5052325;28;20522;-58
2023/06/28 13:18:24;;;;;;;5.47;3.20;;;;;;;;;;5037379;28;20068;-58
2023/06/28 13:20:49;;;;;;;5.30;3.33;;;;;;;;;;5032377;28;21105;-59
2023/06/28 13:23:14;;;;;;;5.10;3.40;;;;;;;;;;5035939;28;20171;-59
2023/06/28 13:25:39;;;;;;;4.60;3.85;;;;;;;;;;5031505;28;20115;-58
2023/06/28 13:28:04;;;;;;;5.45;3.25;;;;;;;;;;5037030;28;20495;-59
2023/06/28 13:30:30;;;;;;;7.63;3.03;;;;;;;;;;5050083;28;20064;-59
2023/06/28 13:32:56;;;;;;;4.13;3.40;;;;;;;;;;5034790;28;20039;-58
2023/06/28 13:35:22;;;;;;;5.72;3.35;;;;;;;;;;5045697;28;20374;-59
2023/06/28 13:37:48;;;;;;;5.80;3.38;;;;;;;;;;5042577;28;20051;-59
2023/06/28 13:40:14;;;;;;;6.28;3.40;;;;;;;;;;5045751;28;20043;-59
2023/06/28 13:42:39;;;;;;;7.05;3.08;;;;;;;;;;5016977;28;20045;-58
2023/06/28 13:45:05;;;;;;;7.43;3.10;;;;;;;;;;5052455;28;20037;-58
2023/06/28 13:47:30;;;;;;;7.13;3.03;;;;;;;;;;5058201;28;20113;-58
2023/06/28 13:49:55;;;;;;;5.13;3.08;;;;;;;;;;5062493;28;20039;-58
2023/06/28 13:52:21;;;;;;;5.93;3.03;;;;;;;;;;5032374;28;20543;-58
2023/06/28 13:54:46;;;;;;;4.45;3.00;;;;;;;;;;5046813;28;20033;-58
2023/06/28 13:57:11;;;;;;;8.27;2.97;;;;;;;;;;5047404;28;20359;-58
2023/06/28 13:59:37;;;;;;;5.13;3.07;;;;;;;;;;5039248;28;20044;-58
2023/06/28 14:02:04;;;;;;;4.72;3.13;;;;;;;;;;5063664;28;20291;-60
2023/06/28 14:04:29;;;;;;;3.70;2.70;;;;;;;;;;5055459;28;20531;-59
2023/06/28 14:06:54;;;;;;;3.80;2.60;;;;;;;;;;5062435;28;20040;-59
2023/06/28 14:09:20;;;;;;;5.13;2.87;;;;;;;;;;5054345;28;20847;-59
2023/06/28 14:11:45;;;;;;;5.47;2.40;;;;;;;;;;5057778;28;20638;-60
2023/06/28 14:14:10;;;;;;;3.75;2.67;;;;;;;;;;5056768;28;20378;-60
2023/06/28 14:16:35;;;;;;;4.60;2.50;;;;;;;;;;5064085;28;20041;-59
2023/06/28 14:19:01;;;;;;;4.03;2.20;;;;;;;;;;5052720;28;21125;-60
2023/06/28 14:21:26;;;;;;;6.20;2.50;;;;;;;;;;5032273;28;20667;-60
2023/06/28 14:23:51;;;;;;;6.10;2.17;;;;;;;;;;5033964;28;20338;-59
2023/06/28 14:26:17;;;;;;;4.20;2.17;;;;;;;;;;5049468;28;20044;-59
2023/06/28 14:28:42;;;;;;;5.22;2.55;;;;;;;;;;5030951;28;20329;-60